createdAt,value
2022-11-20T00:03:12.274Z,193.70
2022-11-20T00:08:35.133Z,196.40
2022-11-20T00:13:58.593Z,231.10
2022-11-20T00:19:20.955Z,216.30
2022-11-20T00:24:43.382Z,361.00
2022-11-20T00:30:10.008Z,361.70
2022-11-20T00:35:34.415Z,335.50
2022-11-20T00:40:58.635Z,314.10
2022-11-20T00:46:23.044Z,315.80
2022-11-20T00:51:44.869Z,310.40
2022-11-20T00:57:06.873Z,310.00
2022-11-20T01:02:28.755Z,244.80
2022-11-20T01:07:50.731Z,220.10
2022-11-20T01:13:30.755Z,220.60
2022-11-20T01:18:54.577Z,182.10
2022-11-20T01:24:18.790Z,221.60
2022-11-20T01:29:40.727Z,181.90
2022-11-20T01:35:03.071Z,163.90
2022-11-20T01:40:24.986Z,230.00
2022-11-20T01:46:17.312Z,196.50
2022-11-20T01:51:52.187Z,294.40
2022-11-20T01:57:14.829Z,250.70
2022-11-20T02:02:38.263Z,240.80
2022-11-20T02:08:00.694Z,241.40
2022-11-20T02:13:41.698Z,245.10
2022-11-20T02:19:05.727Z,213.10
2022-11-20T02:24:27.511Z,163.30
2022-11-20T02:29:53.303Z,169.30
2022-11-20T02:35:20.750Z,188.80
2022-11-20T02:40:43.379Z,222.40
2022-11-20T02:46:09.331Z,234.90
2022-11-20T02:51:31.553Z,226.50
2022-11-20T02:56:53.884Z,188.10
2022-11-20T03:02:15.822Z,202.70
2022-11-20T03:07:37.979Z,168.10
2022-11-20T03:12:59.932Z,182.10
2022-11-20T03:18:21.902Z,199.60
2022-11-20T03:23:43.931Z,191.20
2022-11-20T03:29:06.563Z,169.80
2022-11-20T03:34:28.464Z,165.00
2022-11-20T03:39:50.250Z,161.30
2022-11-20T03:45:13.403Z,162.00
2022-11-20T03:50:34.985Z,188.10
2022-11-20T03:55:57.015Z,168.60
2022-11-20T04:01:21.227Z,175.90
2022-11-20T04:06:43.066Z,103.90
2022-11-20T04:12:05.521Z,113.00
2022-11-20T04:17:27.339Z,133.60
2022-11-20T04:22:49.478Z,95.90
2022-11-20T04:28:11.499Z,107.90
2022-11-20T04:33:34.581Z,167.10
2022-11-20T04:39:07.182Z,113.70
2022-11-20T04:44:29.028Z,95.60
2022-11-20T04:49:50.919Z,92.00
2022-11-20T04:55:12.686Z,126.10
2022-11-20T05:00:34.715Z,106.50
2022-11-20T05:05:56.946Z,91.20
2022-11-20T05:11:21.283Z,89.50
2022-11-20T05:16:43.355Z,151.10
2022-11-20T05:22:06.200Z,108.00
2022-11-20T05:27:28.579Z,120.50
2022-11-20T05:32:50.259Z,107.50
2022-11-20T05:38:12.446Z,92.40
2022-11-20T05:43:35.874Z,104.30
2022-11-20T05:48:59.014Z,110.60
2022-11-20T05:54:21.014Z,125.80
2022-11-20T05:59:43.932Z,111.50
2022-11-20T06:05:06.444Z,177.60
2022-11-20T06:10:28.228Z,197.90
2022-11-20T06:15:54.169Z,177.20
2022-11-20T06:21:20.871Z,249.60
2022-11-20T06:26:43.052Z,278.80
2022-11-20T06:32:05.387Z,224.80
2022-11-20T06:37:27.205Z,118.00
2022-11-20T06:42:49.171Z,166.20
2022-11-20T06:48:11.015Z,126.10
2022-11-20T06:53:33.696Z,139.00
2022-11-20T06:58:55.429Z,135.70
2022-11-20T07:04:16.969Z,140.20
2022-11-20T07:09:38.837Z,152.10
2022-11-20T07:15:00.714Z,160.60
2022-11-20T07:20:22.822Z,145.90
2022-11-20T07:25:44.895Z,175.20
2022-11-20T07:31:08.531Z,162.80
2022-11-20T07:36:30.566Z,178.20
2022-11-20T07:41:52.565Z,215.70
2022-11-20T07:47:14.239Z,181.10
2022-11-20T07:52:36.423Z,201.40
2022-11-20T07:57:58.654Z,197.40
2022-11-20T08:03:24.599Z,162.80
2022-11-20T08:08:46.930Z,165.20
2022-11-20T08:14:14.718Z,167.30
2022-11-20T08:19:38.816Z,156.10
2022-11-20T08:25:00.746Z,120.90
2022-11-20T08:30:22.574Z,108.50
2022-11-20T08:35:44.337Z,94.40
2022-11-20T08:41:24.680Z,104.10
2022-11-20T08:46:48.255Z,80.50
2022-11-20T08:52:09.760Z,80.10
2022-11-20T08:57:38.413Z,73.80
2022-11-20T09:03:02.295Z,97.10
2022-11-20T09:08:24.608Z,86.20
2022-11-20T09:13:46.408Z,98.20
2022-11-20T09:19:34.064Z,100.40
2022-11-20T09:24:50.339Z,96.50
2022-11-20T09:30:14.004Z,94.90
2022-11-20T09:35:35.903Z,113.70
2022-11-20T09:40:59.879Z,94.50
2022-11-20T09:46:48.761Z,102.70
2022-11-20T09:52:42.510Z,146.40
2022-11-20T09:58:07.845Z,138.00
2022-11-20T10:04:25.569Z,111.90
2022-11-20T10:10:05.881Z,105.30
2022-11-20T10:15:55.091Z,92.20
2022-11-20T10:22:02.277Z,79.70
2022-11-20T10:27:34.026Z,60.30
2022-11-20T10:33:17.645Z,64.60
2022-11-20T10:38:43.709Z,83.00
2022-11-20T10:44:40.442Z,59.30
2022-11-20T10:50:05.954Z,72.70
2022-11-20T10:55:46.727Z,50.30
2022-11-20T11:01:17.487Z,64.90
2022-11-20T11:06:44.104Z,65.00
2022-11-20T11:12:12.642Z,59.60
2022-11-20T11:22:58.502Z,56.10
2022-11-20T11:28:26.992Z,64.00
2022-11-20T11:33:49.185Z,57.60
2022-11-20T11:39:16.059Z,68.30
2022-11-20T11:44:56.551Z,64.60
2022-11-20T11:50:22.443Z,57.90
2022-11-20T11:56:16.611Z,73.00
2022-11-20T12:01:50.163Z,81.00
2022-11-20T12:13:07.378Z,78.70
2022-11-20T12:18:29.790Z,81.80
2022-11-20T12:23:54.469Z,76.40
2022-11-20T12:29:25.703Z,80.50
2022-11-20T12:35:11.404Z,78.90
2022-11-20T12:40:42.776Z,71.00
2022-11-20T12:46:26.713Z,86.20
2022-11-20T12:52:22.375Z,88.70
2022-11-20T12:57:52.878Z,78.40
2022-11-20T13:03:20.279Z,67.20
2022-11-20T13:08:44.442Z,73.40
2022-11-20T13:14:36.098Z,82.90
2022-11-20T13:19:59.887Z,78.00
2022-11-20T13:25:33.153Z,75.70
2022-11-20T13:30:56.036Z,77.90
2022-11-20T13:36:24.417Z,92.50
2022-11-20T13:41:55.851Z,93.60
2022-11-20T13:47:30.123Z,86.40
2022-11-20T13:53:02.990Z,87.30
2022-11-20T13:58:34.152Z,108.20
2022-11-20T14:04:11.133Z,96.20
2022-11-20T14:09:34.369Z,87.00
2022-11-20T14:14:56.741Z,98.00
2022-11-20T14:20:24.147Z,82.30
2022-11-20T14:25:46.278Z,90.20
2022-11-20T14:31:20.250Z,76.40
2022-11-20T14:36:44.213Z,99.10
2022-11-20T14:42:17.003Z,84.10
2022-11-20T14:47:39.858Z,87.10
2022-11-20T14:53:02.318Z,100.20
2022-11-20T14:58:27.302Z,105.70
2022-11-20T15:04:19.123Z,103.90
2022-11-20T15:09:40.983Z,91.20
2022-11-20T15:15:04.422Z,71.50
2022-11-20T15:20:32.305Z,68.10
2022-11-20T15:25:53.870Z,73.50
2022-11-20T15:31:18.539Z,64.70
2022-11-20T15:36:41.108Z,74.80
2022-11-20T15:42:02.536Z,80.60
2022-11-20T15:47:29.398Z,82.50
2022-11-20T15:52:51.681Z,64.20
2022-11-20T15:58:14.451Z,61.00
2022-11-20T16:03:36.326Z,76.30
2022-11-20T16:08:58.206Z,76.00
2022-11-20T16:14:38.608Z,70.60
2022-11-20T16:20:00.547Z,65.20
2022-11-20T16:25:22.454Z,84.10
2022-11-20T16:30:44.685Z,89.70
2022-11-20T16:36:14.841Z,67.90
2022-11-20T16:41:37.582Z,107.30
2022-11-20T16:46:59.202Z,78.80
2022-11-20T16:52:20.830Z,77.10
2022-11-20T16:57:42.821Z,64.50
2022-11-20T17:03:06.213Z,68.40
2022-11-20T17:08:30.633Z,73.80
2022-11-20T17:13:52.843Z,91.70
2022-11-20T17:19:15.795Z,77.90
2022-11-20T17:24:37.450Z,73.80
2022-11-20T17:29:59.356Z,94.00
2022-11-20T17:35:21.291Z,119.00
2022-11-20T17:40:43.212Z,85.30
2022-11-20T17:46:13.030Z,79.10
2022-11-20T17:51:35.419Z,73.90
2022-11-20T17:57:16.192Z,69.80
2022-11-20T18:02:38.127Z,84.00
2022-11-20T18:08:00.089Z,132.50
2022-11-20T18:13:45.008Z,113.70
2022-11-20T18:19:12.063Z,132.70
2022-11-20T18:24:34.415Z,159.90
2022-11-20T18:29:58.982Z,129.90
2022-11-20T18:35:20.857Z,231.40
2022-11-20T18:40:42.619Z,116.90
2022-11-20T18:46:04.970Z,81.50
2022-11-20T18:51:26.715Z,97.10
2022-11-20T18:56:48.834Z,121.10
2022-11-20T19:02:16.279Z,105.80
2022-11-20T19:07:38.163Z,85.50
2022-11-20T19:13:00.537Z,140.50
2022-11-20T19:18:22.377Z,100.10
2022-11-20T19:23:48.226Z,94.10
2022-11-20T19:29:15.618Z,88.40
2022-11-20T19:34:37.687Z,101.10
2022-11-20T19:39:59.854Z,100.10
2022-11-20T19:45:21.950Z,79.50
2022-11-20T19:50:43.830Z,82.90
2022-11-20T19:56:06.409Z,83.10
2022-11-20T20:01:30.904Z,99.60
2022-11-20T20:06:52.595Z,103.40
2022-11-20T20:12:14.708Z,102.00
2022-11-20T20:17:36.788Z,109.50
2022-11-20T20:22:58.868Z,109.40
2022-11-20T20:28:20.494Z,127.80
2022-11-20T20:33:43.496Z,100.30
2022-11-20T20:39:05.060Z,105.30
2022-11-20T20:44:45.248Z,105.60
2022-11-20T20:50:10.855Z,103.60
2022-11-20T20:55:34.224Z,114.80
2022-11-20T21:01:02.318Z,119.10
2022-11-20T21:06:24.633Z,111.90
2022-11-20T21:11:46.376Z,106.70
2022-11-20T21:17:13.698Z,108.10
2022-11-20T21:22:36.923Z,101.50
2022-11-20T21:27:58.475Z,108.10
2022-11-20T21:33:20.378Z,93.50
2022-11-20T21:38:42.808Z,83.70
2022-11-20T21:49:48.050Z,97.10
2022-11-20T21:55:10.080Z,129.90
2022-11-20T22:00:31.798Z,136.60
2022-11-20T22:05:57.545Z,119.30
2022-11-20T22:11:21.398Z,147.50
2022-11-20T22:16:43.407Z,145.10
2022-11-20T22:22:05.435Z,143.40
2022-11-20T22:27:26.935Z,143.10
2022-11-20T22:32:48.896Z,379.90
2022-11-20T22:38:10.923Z,259.10
2022-11-20T22:43:33.423Z,327.90
2022-11-20T22:49:01.893Z,164.50
2022-11-20T22:59:46.221Z,150.10
2022-11-20T23:05:08.397Z,196.20
2022-11-20T23:10:30.157Z,137.40
2022-11-20T23:15:52.142Z,129.40
2022-11-20T23:21:16.983Z,231.20
2022-11-20T23:26:41.283Z,217.70
2022-11-20T23:32:03.186Z,142.60
2022-11-20T23:37:25.219Z,121.90
2022-11-20T23:43:06.089Z,109.00
2022-11-20T23:48:32.535Z,109.30
2022-11-20T23:53:54.263Z,122.60
2022-11-20T23:59:15.847Z,105.50
